Grand Etang, Canada
Current Conditions -  °F | °C
As of 3:40 AM on Saturday 29 Nov 2014 (Local Time) from CYQY Reporting Station
Snow Showers Snow Showers  
Wind Chill: 18°   Ceiling: 1400
Heat Index: 28°   Visibility: 4mi
Dew Point: 27°   Wind: 12mph
Humidity: 93%   Direction: 330°NNW
Pressure: 29.91"   Gusts: 17mph
Location:  46.55°N, 61.04°W
Report Text: CYQY 290740Z 33010G15KT 4SM -SHSN BKN014 OVC028 M02/M03 A2991 RMK NS5SC3 SLP131
Loading
Personal Weather Stations






























Interactive Weather Map New forecast layout! Learn more

10-Day Weather Forecast

Advertisements
Track Severe Weather on mobile